sensor_id;sensor_type;location;lat;lon;timestamp;P1;durP1;ratioP1;P2;durP2;ratioP2
34988;SDS011;21192;40.182;44.516;2022-08-19T00:00:03;14.75;;;4.78;;
34988;SDS011;21192;40.182;44.516;2022-08-19T00:02:32;25.17;;;6.03;;
34988;SDS011;21192;40.182;44.516;2022-08-19T00:04:58;25.55;;;6.03;;
34988;SDS011;21192;40.182;44.516;2022-08-19T00:07:24;23.60;;;5.88;;
34988;SDS011;21192;40.182;44.516;2022-08-19T00:09:50;23.50;;;5.30;;
34988;SDS011;21192;40.182;44.516;2022-08-19T00:12:15;29.73;;;5.82;;
34988;SDS011;21192;40.182;44.516;2022-08-19T00:14:41;24.08;;;5.72;;
34988;SDS011;21192;40.182;44.516;2022-08-19T00:17:08;18.33;;;5.82;;
34988;SDS011;21192;40.182;44.516;2022-08-19T00:19:34;17.20;;;5.50;;
34988;SDS011;21192;40.182;44.516;2022-08-19T00:22:01;18.33;;;5.63;;
34988;SDS011;21192;40.182;44.516;2022-08-19T00:24:27;23.48;;;5.60;;
34988;SDS011;21192;40.182;44.516;2022-08-19T00:26:54;20.98;;;4.93;;
34988;SDS011;21192;40.182;44.516;2022-08-19T00:29:22;20.92;;;5.75;;
34988;SDS011;21192;40.182;44.516;2022-08-19T00:31:50;20.67;;;5.30;;
34988;SDS011;21192;40.182;44.516;2022-08-19T00:34:19;22.33;;;5.40;;
34988;SDS011;21192;40.182;44.516;2022-08-19T00:36:48;24.60;;;6.40;;
34988;SDS011;21192;40.182;44.516;2022-08-19T00:39:14;21.45;;;6.00;;
34988;SDS011;21192;40.182;44.516;2022-08-19T00:41:42;22.75;;;6.45;;
34988;SDS011;21192;40.182;44.516;2022-08-19T00:44:15;20.98;;;6.22;;
34988;SDS011;21192;40.182;44.516;2022-08-19T00:46:42;18.20;;;5.32;;
34988;SDS011;21192;40.182;44.516;2022-08-19T00:49:12;20.67;;;5.25;;
34988;SDS011;21192;40.182;44.516;2022-08-19T00:51:44;26.08;;;5.68;;
34988;SDS011;21192;40.182;44.516;2022-08-19T00:54:12;14.65;;;5.00;;
34988;SDS011;21192;40.182;44.516;2022-08-19T00:56:38;24.42;;;5.72;;
34988;SDS011;21192;40.182;44.516;2022-08-19T00:59:05;20.48;;;4.93;;
34988;SDS011;21192;40.182;44.516;2022-08-19T01:01:37;27.15;;;5.28;;
34988;SDS011;21192;40.182;44.516;2022-08-19T01:04:05;14.98;;;4.53;;
34988;SDS011;21192;40.182;44.516;2022-08-19T01:06:31;25.08;;;5.57;;
34988;SDS011;21192;40.182;44.516;2022-08-19T01:08:59;27.83;;;6.63;;
34988;SDS011;21192;40.182;44.516;2022-08-19T01:11:26;18.30;;;6.03;;
34988;SDS011;21192;40.182;44.516;2022-08-19T01:13:53;26.67;;;6.53;;
34988;SDS011;21192;40.182;44.516;2022-08-19T01:16:20;21.65;;;5.70;;
34988;SDS011;21192;40.182;44.516;2022-08-19T01:18:49;28.77;;;6.25;;
34988;SDS011;21192;40.182;44.516;2022-08-19T01:21:34;22.02;;;6.60;;
34988;SDS011;21192;40.182;44.516;2022-08-19T01:24:07;29.23;;;5.65;;
34988;SDS011;21192;40.182;44.516;2022-08-19T01:26:37;22.85;;;5.90;;
34988;SDS011;21192;40.182;44.516;2022-08-19T01:29:08;23.77;;;6.25;;
34988;SDS011;21192;40.182;44.516;2022-08-19T01:31:35;20.27;;;5.35;;
34988;SDS011;21192;40.182;44.516;2022-08-19T01:34:02;21.38;;;5.70;;
34988;SDS011;21192;40.182;44.516;2022-08-19T01:36:42;19.67;;;6.50;;
34988;SDS011;21192;40.182;44.516;2022-08-19T01:39:16;19.33;;;5.57;;
34988;SDS011;21192;40.182;44.516;2022-08-19T01:41:45;22.40;;;5.38;;
34988;SDS011;21192;40.182;44.516;2022-08-19T01:44:12;20.08;;;5.63;;
34988;SDS011;21192;40.182;44.516;2022-08-19T01:46:40;18.20;;;5.20;;
34988;SDS011;21192;40.182;44.516;2022-08-19T01:49:07;24.23;;;5.38;;
34988;SDS011;21192;40.182;44.516;2022-08-19T01:51:34;27.23;;;6.07;;
34988;SDS011;21192;40.182;44.516;2022-08-19T01:54:00;20.90;;;5.50;;
34988;SDS011;21192;40.182;44.516;2022-08-19T01:56:26;23.45;;;5.22;;
34988;SDS011;21192;40.182;44.516;2022-08-19T01:58:57;22.92;;;5.10;;
34988;SDS011;21192;40.182;44.516;2022-08-19T02:01:26;23.75;;;5.05;;
34988;SDS011;21192;40.182;44.516;2022-08-19T02:03:56;25.80;;;5.30;;
34988;SDS011;21192;40.182;44.516;2022-08-19T02:06:24;28.77;;;5.40;;
34988;SDS011;21192;40.182;44.516;2022-08-19T02:08:49;23.75;;;5.57;;
34988;SDS011;21192;40.182;44.516;2022-08-19T02:11:23;26.52;;;5.30;;
34988;SDS011;21192;40.182;44.516;2022-08-19T02:13:52;28.75;;;5.38;;
34988;SDS011;21192;40.182;44.516;2022-08-19T02:16:20;25.88;;;5.90;;
34988;SDS011;21192;40.182;44.516;2022-08-19T02:18:47;28.73;;;5.43;;
34988;SDS011;21192;40.182;44.516;2022-08-19T02:21:16;25.17;;;5.78;;
34988;SDS011;21192;40.182;44.516;2022-08-19T02:23:43;22.15;;;4.72;;
34988;SDS011;21192;40.182;44.516;2022-08-19T02:26:09;30.63;;;5.60;;
34988;SDS011;21192;40.182;44.516;2022-08-19T02:28:36;28.77;;;6.13;;
34988;SDS011;21192;40.182;44.516;2022-08-19T02:31:02;23.90;;;4.97;;
34988;SDS011;21192;40.182;44.516;2022-08-19T02:33:29;32.65;;;5.68;;
34988;SDS011;21192;40.182;44.516;2022-08-19T02:35:55;29.55;;;5.78;;
34988;SDS011;21192;40.182;44.516;2022-08-19T02:38:22;19.40;;;4.70;;
34988;SDS011;21192;40.182;44.516;2022-08-19T02:40:58;25.58;;;5.75;;
34988;SDS011;21192;40.182;44.516;2022-08-19T02:43:26;23.67;;;4.90;;
34988;SDS011;21192;40.182;44.516;2022-08-19T02:45:53;28.85;;;5.30;;
34988;SDS011;21192;40.182;44.516;2022-08-19T02:48:20;23.80;;;5.15;;
34988;SDS011;21192;40.182;44.516;2022-08-19T02:50:48;23.55;;;5.10;;
34988;SDS011;21192;40.182;44.516;2022-08-19T02:53:20;26.75;;;5.70;;
34988;SDS011;21192;40.182;44.516;2022-08-19T02:55:51;31.42;;;5.18;;
34988;SDS011;21192;40.182;44.516;2022-08-19T02:58:17;32.67;;;5.82;;
34988;SDS011;21192;40.182;44.516;2022-08-19T03:00:45;29.75;;;6.15;;
34988;SDS011;21192;40.182;44.516;2022-08-19T03:03:14;22.02;;;5.38;;
34988;SDS011;21192;40.182;44.516;2022-08-19T03:05:40;24.27;;;5.95;;
34988;SDS011;21192;40.182;44.516;2022-08-19T03:08:07;30.80;;;5.40;;
34988;SDS011;21192;40.182;44.516;2022-08-19T03:10:46;24.38;;;5.07;;
34988;SDS011;21192;40.182;44.516;2022-08-19T03:13:14;23.80;;;5.55;;
34988;SDS011;21192;40.182;44.516;2022-08-19T03:15:42;19.23;;;5.22;;
34988;SDS011;21192;40.182;44.516;2022-08-19T03:18:09;14.68;;;4.68;;
34988;SDS011;21192;40.182;44.516;2022-08-19T03:20:40;26.90;;;5.15;;
34988;SDS011;21192;40.182;44.516;2022-08-19T03:23:10;23.98;;;4.95;;
34988;SDS011;21192;40.182;44.516;2022-08-19T03:25:38;23.35;;;5.25;;
34988;SDS011;21192;40.182;44.516;2022-08-19T03:28:08;20.88;;;4.53;;
34988;SDS011;21192;40.182;44.516;2022-08-19T03:30:38;21.90;;;4.88;;
34988;SDS011;21192;40.182;44.516;2022-08-19T03:33:06;30.77;;;5.20;;
34988;SDS011;21192;40.182;44.516;2022-08-19T03:35:33;19.73;;;4.57;;
34988;SDS011;21192;40.182;44.516;2022-08-19T03:38:02;27.58;;;5.55;;
34988;SDS011;21192;40.182;44.516;2022-08-19T03:40:32;26.90;;;5.60;;
34988;SDS011;21192;40.182;44.516;2022-08-19T03:43:01;28.77;;;6.80;;
34988;SDS011;21192;40.182;44.516;2022-08-19T03:45:27;28.08;;;6.15;;
34988;SDS011;21192;40.182;44.516;2022-08-19T03:47:53;29.02;;;8.38;;
34988;SDS011;21192;40.182;44.516;2022-08-19T03:50:20;29.33;;;8.13;;
34988;SDS011;21192;40.182;44.516;2022-08-19T03:52:50;28.17;;;7.70;;
34988;SDS011;21192;40.182;44.516;2022-08-19T03:55:17;23.05;;;5.72;;
34988;SDS011;21192;40.182;44.516;2022-08-19T03:57:44;29.65;;;6.43;;
34988;SDS011;21192;40.182;44.516;2022-08-19T04:00:11;20.42;;;5.15;;
34988;SDS011;21192;40.182;44.516;2022-08-19T04:02:37;31.08;;;5.22;;
34988;SDS011;21192;40.182;44.516;2022-08-19T04:05:03;20.20;;;5.30;;
34988;SDS011;21192;40.182;44.516;2022-08-19T04:07:30;27.02;;;6.10;;
34988;SDS011;21192;40.182;44.516;2022-08-19T04:09:55;26.35;;;6.43;;
34988;SDS011;21192;40.182;44.516;2022-08-19T04:12:21;25.30;;;6.20;;
34988;SDS011;21192;40.182;44.516;2022-08-19T04:14:47;22.90;;;6.28;;
34988;SDS011;21192;40.182;44.516;2022-08-19T04:17:13;26.15;;;6.55;;
34988;SDS011;21192;40.182;44.516;2022-08-19T04:19:39;17.42;;;6.10;;
34988;SDS011;21192;40.182;44.516;2022-08-19T04:22:07;19.92;;;5.20;;
34988;SDS011;21192;40.182;44.516;2022-08-19T04:24:36;23.23;;;6.43;;
34988;SDS011;21192;40.182;44.516;2022-08-19T04:27:02;25.48;;;6.13;;
34988;SDS011;21192;40.182;44.516;2022-08-19T04:29:29;25.90;;;6.18;;
34988;SDS011;21192;40.182;44.516;2022-08-19T04:31:56;36.75;;;7.03;;
34988;SDS011;21192;40.182;44.516;2022-08-19T04:34:24;31.55;;;6.60;;
34988;SDS011;21192;40.182;44.516;2022-08-19T04:36:52;24.42;;;4.25;;
34988;SDS011;21192;40.182;44.516;2022-08-19T04:39:22;17.98;;;5.28;;
34988;SDS011;21192;40.182;44.516;2022-08-19T04:42:12;23.92;;;5.75;;
34988;SDS011;21192;40.182;44.516;2022-08-19T04:44:57;21.50;;;5.35;;
34988;SDS011;21192;40.182;44.516;2022-08-19T04:47:24;27.42;;;6.07;;
34988;SDS011;21192;40.182;44.516;2022-08-19T04:49:51;17.95;;;5.13;;
34988;SDS011;21192;40.182;44.516;2022-08-19T04:52:17;25.08;;;5.85;;
34988;SDS011;21192;40.182;44.516;2022-08-19T04:54:42;26.20;;;5.43;;
34988;SDS011;21192;40.182;44.516;2022-08-19T04:57:08;25.60;;;5.72;;
34988;SDS011;21192;40.182;44.516;2022-08-19T04:59:35;28.77;;;5.88;;
34988;SDS011;21192;40.182;44.516;2022-08-19T05:02:03;21.02;;;5.00;;
34988;SDS011;21192;40.182;44.516;2022-08-19T05:04:31;24.52;;;5.60;;
34988;SDS011;21192;40.182;44.516;2022-08-19T05:06:58;24.25;;;6.40;;
34988;SDS011;21192;40.182;44.516;2022-08-19T05:09:25;32.72;;;6.53;;
34988;SDS011;21192;40.182;44.516;2022-08-19T05:11:51;21.88;;;4.97;;
34988;SDS011;21192;40.182;44.516;2022-08-19T05:14:18;26.35;;;5.63;;
34988;SDS011;21192;40.182;44.516;2022-08-19T05:16:46;20.63;;;4.45;;
34988;SDS011;21192;40.182;44.516;2022-08-19T05:19:12;16.15;;;4.68;;
34988;SDS011;21192;40.182;44.516;2022-08-19T05:21:57;31.00;;;6.20;;
34988;SDS011;21192;40.182;44.516;2022-08-19T05:24:43;24.42;;;5.35;;
34988;SDS011;21192;40.182;44.516;2022-08-19T05:27:09;26.80;;;5.72;;
34988;SDS011;21192;40.182;44.516;2022-08-19T05:29:35;19.23;;;5.13;;
34988;SDS011;21192;40.182;44.516;2022-08-19T05:32:03;19.10;;;4.63;;
34988;SDS011;21192;40.182;44.516;2022-08-19T05:34:30;29.30;;;5.63;;
34988;SDS011;21192;40.182;44.516;2022-08-19T05:36:58;25.98;;;5.15;;
34988;SDS011;21192;40.182;44.516;2022-08-19T05:39:25;25.27;;;5.85;;
34988;SDS011;21192;40.182;44.516;2022-08-19T05:41:54;30.25;;;5.53;;
34988;SDS011;21192;40.182;44.516;2022-08-19T05:44:26;30.38;;;5.65;;
34988;SDS011;21192;40.182;44.516;2022-08-19T05:47:01;27.40;;;5.38;;
34988;SDS011;21192;40.182;44.516;2022-08-19T05:49:29;18.05;;;4.72;;
34988;SDS011;21192;40.182;44.516;2022-08-19T05:51:57;20.40;;;4.93;;
34988;SDS011;21192;40.182;44.516;2022-08-19T05:54:24;24.48;;;5.00;;
34988;SDS011;21192;40.182;44.516;2022-08-19T05:56:51;23.95;;;5.97;;
34988;SDS011;21192;40.182;44.516;2022-08-19T05:59:18;32.55;;;6.55;;
34988;SDS011;21192;40.182;44.516;2022-08-19T06:01:46;28.30;;;5.43;;
34988;SDS011;21192;40.182;44.516;2022-08-19T06:04:18;19.38;;;5.32;;
34988;SDS011;21192;40.182;44.516;2022-08-19T06:06:46;20.70;;;5.68;;
34988;SDS011;21192;40.182;44.516;2022-08-19T06:09:12;19.02;;;5.50;;
34988;SDS011;21192;40.182;44.516;2022-08-19T06:14:17;19.27;;;5.20;;
34988;SDS011;21192;40.182;44.516;2022-08-19T06:16:46;28.50;;;6.78;;
34988;SDS011;21192;40.182;44.516;2022-08-19T06:19:14;36.88;;;7.10;;
34988;SDS011;21192;40.182;44.516;2022-08-19T06:21:42;28.35;;;6.00;;
34988;SDS011;21192;40.182;44.516;2022-08-19T06:24:11;30.38;;;5.97;;
34988;SDS011;21192;40.182;44.516;2022-08-19T06:26:41;55.35;;;10.93;;
34988;SDS011;21192;40.182;44.516;2022-08-19T06:29:09;56.08;;;11.27;;
34988;SDS011;21192;40.182;44.516;2022-08-19T06:31:40;60.85;;;13.32;;
34988;SDS011;21192;40.182;44.516;2022-08-19T06:34:08;43.63;;;11.85;;
34988;SDS011;21192;40.182;44.516;2022-08-19T06:36:35;50.42;;;9.48;;
34988;SDS011;21192;40.182;44.516;2022-08-19T06:39:07;44.17;;;9.50;;
34988;SDS011;21192;40.182;44.516;2022-08-19T06:41:36;25.73;;;6.63;;
34988;SDS011;21192;40.182;44.516;2022-08-19T06:44:05;52.85;;;10.45;;
34988;SDS011;21192;40.182;44.516;2022-08-19T06:46:31;45.15;;;10.70;;
34988;SDS011;21192;40.182;44.516;2022-08-19T06:48:59;37.17;;;8.95;;
34988;SDS011;21192;40.182;44.516;2022-08-19T06:51:25;51.28;;;10.48;;
34988;SDS011;21192;40.182;44.516;2022-08-19T06:53:52;28.98;;;7.80;;
34988;SDS011;21192;40.182;44.516;2022-08-19T06:56:21;47.53;;;10.13;;
34988;SDS011;21192;40.182;44.516;2022-08-19T06:58:56;34.65;;;7.88;;
34988;SDS011;21192;40.182;44.516;2022-08-19T07:01:22;39.15;;;9.38;;
34988;SDS011;21192;40.182;44.516;2022-08-19T07:03:48;45.28;;;9.30;;
34988;SDS011;21192;40.182;44.516;2022-08-19T07:06:15;56.85;;;13.40;;
34988;SDS011;21192;40.182;44.516;2022-08-19T07:08:43;50.70;;;11.68;;
34988;SDS011;21192;40.182;44.516;2022-08-19T07:11:10;55.08;;;12.30;;
34988;SDS011;21192;40.182;44.516;2022-08-19T07:13:38;47.28;;;10.65;;
34988;SDS011;21192;40.182;44.516;2022-08-19T07:16:08;55.88;;;11.43;;
34988;SDS011;21192;40.182;44.516;2022-08-19T07:18:37;57.13;;;12.18;;
34988;SDS011;21192;40.182;44.516;2022-08-19T07:21:03;34.55;;;8.45;;
34988;SDS011;21192;40.182;44.516;2022-08-19T07:23:31;40.65;;;9.63;;
34988;SDS011;21192;40.182;44.516;2022-08-19T07:25:57;44.70;;;10.02;;
34988;SDS011;21192;40.182;44.516;2022-08-19T07:28:23;29.90;;;10.43;;
34988;SDS011;21192;40.182;44.516;2022-08-19T07:30:50;44.67;;;11.95;;
34988;SDS011;21192;40.182;44.516;2022-08-19T07:33:16;42.33;;;11.50;;
34988;SDS011;21192;40.182;44.516;2022-08-19T07:35:43;47.65;;;11.80;;
34988;SDS011;21192;40.182;44.516;2022-08-19T07:38:09;31.00;;;8.52;;
34988;SDS011;21192;40.182;44.516;2022-08-19T07:40:35;51.45;;;11.90;;
34988;SDS011;21192;40.182;44.516;2022-08-19T07:43:01;45.80;;;10.55;;
34988;SDS011;21192;40.182;44.516;2022-08-19T07:45:28;38.45;;;10.23;;
34988;SDS011;21192;40.182;44.516;2022-08-19T07:47:54;41.38;;;10.98;;
34988;SDS011;21192;40.182;44.516;2022-08-19T07:50:20;45.92;;;9.40;;
34988;SDS011;21192;40.182;44.516;2022-08-19T07:52:47;42.30;;;10.18;;
34988;SDS011;21192;40.182;44.516;2022-08-19T07:55:15;51.67;;;11.85;;
34988;SDS011;21192;40.182;44.516;2022-08-19T07:57:43;41.85;;;9.38;;
34988;SDS011;21192;40.182;44.516;2022-08-19T08:00:09;27.88;;;8.27;;
34988;SDS011;21192;40.182;44.516;2022-08-19T08:02:35;32.92;;;8.05;;
34988;SDS011;21192;40.182;44.516;2022-08-19T08:05:03;41.85;;;9.45;;
34988;SDS011;21192;40.182;44.516;2022-08-19T08:07:47;34.03;;;10.32;;
34988;SDS011;21192;40.182;44.516;2022-08-19T08:10:31;38.38;;;9.45;;
34988;SDS011;21192;40.182;44.516;2022-08-19T08:12:57;40.35;;;10.23;;
34988;SDS011;21192;40.182;44.516;2022-08-19T08:15:24;41.53;;;10.07;;
34988;SDS011;21192;40.182;44.516;2022-08-19T08:17:50;38.95;;;10.10;;
34988;SDS011;21192;40.182;44.516;2022-08-19T08:20:16;49.40;;;10.70;;
34988;SDS011;21192;40.182;44.516;2022-08-19T08:22:46;50.20;;;10.73;;
34988;SDS011;21192;40.182;44.516;2022-08-19T08:25:31;57.50;;;11.63;;
34988;SDS011;21192;40.182;44.516;2022-08-19T08:27:57;42.53;;;11.45;;
34988;SDS011;21192;40.182;44.516;2022-08-19T08:30:25;46.53;;;11.13;;
34988;SDS011;21192;40.182;44.516;2022-08-19T08:32:52;39.33;;;9.45;;
34988;SDS011;21192;40.182;44.516;2022-08-19T08:35:20;36.20;;;9.93;;
34988;SDS011;21192;40.182;44.516;2022-08-19T08:37:49;48.00;;;9.88;;
34988;SDS011;21192;40.182;44.516;2022-08-19T08:40:27;41.83;;;8.23;;
34988;SDS011;21192;40.182;44.516;2022-08-19T08:43:16;43.67;;;9.70;;
34988;SDS011;21192;40.182;44.516;2022-08-19T08:45:59;34.65;;;8.32;;
34988;SDS011;21192;40.182;44.516;2022-08-19T08:48:41;37.75;;;9.55;;
34988;SDS011;21192;40.182;44.516;2022-08-19T08:54:22;47.17;;;9.73;;
34988;SDS011;21192;40.182;44.516;2022-08-19T08:56:53;49.10;;;9.88;;
34988;SDS011;21192;40.182;44.516;2022-08-19T08:59:21;40.78;;;9.85;;
34988;SDS011;21192;40.182;44.516;2022-08-19T09:01:53;41.50;;;11.15;;
34988;SDS011;21192;40.182;44.516;2022-08-19T09:04:19;35.80;;;9.65;;
34988;SDS011;21192;40.182;44.516;2022-08-19T09:09:38;31.15;;;8.90;;
34988;SDS011;21192;40.182;44.516;2022-08-19T09:15:03;24.25;;;8.63;;
34988;SDS011;21192;40.182;44.516;2022-08-19T09:17:32;29.75;;;6.25;;
34988;SDS011;21192;40.182;44.516;2022-08-19T09:22:34;29.45;;;5.50;;
34988;SDS011;21192;40.182;44.516;2022-08-19T09:25:02;31.30;;;8.90;;
34988;SDS011;21192;40.182;44.516;2022-08-19T09:27:30;22.17;;;4.63;;
34988;SDS011;21192;40.182;44.516;2022-08-19T09:29:57;23.55;;;6.50;;
34988;SDS011;21192;40.182;44.516;2022-08-19T09:32:23;34.75;;;8.27;;
34988;SDS011;21192;40.182;44.516;2022-08-19T09:34:51;32.05;;;9.13;;
34988;SDS011;21192;40.182;44.516;2022-08-19T09:37:19;25.90;;;5.97;;
34988;SDS011;21192;40.182;44.516;2022-08-19T09:39:46;38.75;;;8.18;;
34988;SDS011;21192;40.182;44.516;2022-08-19T09:42:12;28.42;;;7.78;;
34988;SDS011;21192;40.182;44.516;2022-08-19T09:44:39;32.17;;;7.38;;
34988;SDS011;21192;40.182;44.516;2022-08-19T09:47:06;32.25;;;7.40;;
34988;SDS011;21192;40.182;44.516;2022-08-19T09:49:33;41.42;;;13.48;;
34988;SDS011;21192;40.182;44.516;2022-08-19T09:51:59;34.80;;;9.50;;
34988;SDS011;21192;40.182;44.516;2022-08-19T09:54:25;44.28;;;11.23;;
34988;SDS011;21192;40.182;44.516;2022-08-19T09:56:55;23.02;;;4.60;;
34988;SDS011;21192;40.182;44.516;2022-08-19T09:59:22;30.15;;;11.38;;
34988;SDS011;21192;40.182;44.516;2022-08-19T10:01:49;29.27;;;9.23;;
34988;SDS011;21192;40.182;44.516;2022-08-19T10:04:16;43.92;;;11.73;;
34988;SDS011;21192;40.182;44.516;2022-08-19T10:06:42;30.02;;;7.28;;
34988;SDS011;21192;40.182;44.516;2022-08-19T10:09:08;18.70;;;5.13;;
34988;SDS011;21192;40.182;44.516;2022-08-19T10:11:36;21.75;;;5.25;;
34988;SDS011;21192;40.182;44.516;2022-08-19T10:14:05;19.80;;;4.43;;
34988;SDS011;21192;40.182;44.516;2022-08-19T10:16:32;21.58;;;5.60;;
34988;SDS011;21192;40.182;44.516;2022-08-19T10:18:58;22.73;;;5.60;;
34988;SDS011;21192;40.182;44.516;2022-08-19T10:21:26;34.67;;;8.88;;
34988;SDS011;21192;40.182;44.516;2022-08-19T10:23:56;19.67;;;4.90;;
34988;SDS011;21192;40.182;44.516;2022-08-19T10:26:24;18.77;;;3.83;;
34988;SDS011;21192;40.182;44.516;2022-08-19T10:28:52;18.85;;;5.43;;
34988;SDS011;21192;40.182;44.516;2022-08-19T10:31:23;25.23;;;4.75;;
34988;SDS011;21192;40.182;44.516;2022-08-19T10:33:52;16.35;;;3.70;;
34988;SDS011;21192;40.182;44.516;2022-08-19T10:36:24;21.90;;;6.30;;
34988;SDS011;21192;40.182;44.516;2022-08-19T10:38:53;40.58;;;7.88;;
34988;SDS011;21192;40.182;44.516;2022-08-19T10:41:24;46.20;;;10.20;;
34988;SDS011;21192;40.182;44.516;2022-08-19T10:43:53;40.53;;;8.85;;
34988;SDS011;21192;40.182;44.516;2022-08-19T10:46:22;25.30;;;4.20;;
34988;SDS011;21192;40.182;44.516;2022-08-19T10:48:49;30.05;;;6.47;;
34988;SDS011;21192;40.182;44.516;2022-08-19T10:51:16;20.23;;;3.17;;
34988;SDS011;21192;40.182;44.516;2022-08-19T10:54:01;18.65;;;4.43;;
34988;SDS011;21192;40.182;44.516;2022-08-19T10:56:27;22.95;;;5.05;;
34988;SDS011;21192;40.182;44.516;2022-08-19T10:59:11;22.52;;;5.18;;
34988;SDS011;21192;40.182;44.516;2022-08-19T11:01:39;23.90;;;5.50;;
34988;SDS011;21192;40.182;44.516;2022-08-19T11:04:06;15.13;;;3.70;;
34988;SDS011;21192;40.182;44.516;2022-08-19T11:06:35;13.63;;;3.15;;
34988;SDS011;21192;40.182;44.516;2022-08-19T11:09:03;17.45;;;3.72;;
34988;SDS011;21192;40.182;44.516;2022-08-19T11:11:30;17.88;;;3.67;;
34988;SDS011;21192;40.182;44.516;2022-08-19T11:13:57;13.63;;;3.30;;
34988;SDS011;21192;40.182;44.516;2022-08-19T11:16:24;24.80;;;6.88;;
34988;SDS011;21192;40.182;44.516;2022-08-19T11:18:56;19.90;;;4.75;;
34988;SDS011;21192;40.182;44.516;2022-08-19T11:21:28;19.80;;;5.28;;
34988;SDS011;21192;40.182;44.516;2022-08-19T11:24:02;21.67;;;5.70;;
34988;SDS011;21192;40.182;44.516;2022-08-19T11:26:31;19.73;;;4.70;;
34988;SDS011;21192;40.182;44.516;2022-08-19T11:28:58;31.55;;;10.45;;
34988;SDS011;21192;40.182;44.516;2022-08-19T11:31:26;30.25;;;7.63;;
34988;SDS011;21192;40.182;44.516;2022-08-19T11:33:56;18.52;;;5.40;;
34988;SDS011;21192;40.182;44.516;2022-08-19T11:36:24;17.08;;;5.53;;
34988;SDS011;21192;40.182;44.516;2022-08-19T11:38:52;25.67;;;5.13;;
34988;SDS011;21192;40.182;44.516;2022-08-19T11:41:19;23.45;;;6.60;;
34988;SDS011;21192;40.182;44.516;2022-08-19T11:43:48;21.95;;;6.10;;
34988;SDS011;21192;40.182;44.516;2022-08-19T11:46:15;23.00;;;7.20;;
34988;SDS011;21192;40.182;44.516;2022-08-19T11:48:42;17.98;;;4.68;;
34988;SDS011;21192;40.182;44.516;2022-08-19T11:51:09;30.95;;;7.35;;
34988;SDS011;21192;40.182;44.516;2022-08-19T11:53:37;20.85;;;5.90;;
34988;SDS011;21192;40.182;44.516;2022-08-19T11:56:04;16.50;;;4.57;;
34988;SDS011;21192;40.182;44.516;2022-08-19T11:58:31;22.40;;;6.63;;
34988;SDS011;21192;40.182;44.516;2022-08-19T12:00:57;27.02;;;7.18;;
34988;SDS011;21192;40.182;44.516;2022-08-19T12:03:23;28.65;;;7.85;;
34988;SDS011;21192;40.182;44.516;2022-08-19T12:05:50;24.48;;;5.93;;
34988;SDS011;21192;40.182;44.516;2022-08-19T12:08:17;22.40;;;6.10;;
34988;SDS011;21192;40.182;44.516;2022-08-19T12:10:43;14.80;;;4.60;;
34988;SDS011;21192;40.182;44.516;2022-08-19T12:13:10;27.40;;;5.30;;
34988;SDS011;21192;40.182;44.516;2022-08-19T12:15:40;17.45;;;4.97;;
34988;SDS011;21192;40.182;44.516;2022-08-19T12:18:06;19.35;;;6.93;;
34988;SDS011;21192;40.182;44.516;2022-08-19T12:20:37;23.02;;;5.32;;
34988;SDS011;21192;40.182;44.516;2022-08-19T12:23:04;16.73;;;3.58;;
34988;SDS011;21192;40.182;44.516;2022-08-19T12:25:32;20.73;;;5.25;;
34988;SDS011;21192;40.182;44.516;2022-08-19T12:27:59;15.13;;;5.60;;
34988;SDS011;21192;40.182;44.516;2022-08-19T12:30:26;35.53;;;8.60;;
34988;SDS011;21192;40.182;44.516;2022-08-19T12:32:52;76.82;;;11.43;;
34988;SDS011;21192;40.182;44.516;2022-08-19T12:35:19;35.05;;;7.00;;
34988;SDS011;21192;40.182;44.516;2022-08-19T12:37:45;56.03;;;10.75;;
34988;SDS011;21192;40.182;44.516;2022-08-19T12:40:13;34.72;;;8.38;;
34988;SDS011;21192;40.182;44.516;2022-08-19T12:42:44;53.55;;;11.43;;
34988;SDS011;21192;40.182;44.516;2022-08-19T12:45:11;41.65;;;10.32;;
34988;SDS011;21192;40.182;44.516;2022-08-19T12:47:38;32.55;;;8.75;;
34988;SDS011;21192;40.182;44.516;2022-08-19T12:50:05;40.92;;;8.23;;
34988;SDS011;21192;40.182;44.516;2022-08-19T12:52:33;48.15;;;10.82;;
34988;SDS011;21192;40.182;44.516;2022-08-19T12:55:05;34.42;;;8.88;;
34988;SDS011;21192;40.182;44.516;2022-08-19T12:57:33;35.67;;;9.15;;
34988;SDS011;21192;40.182;44.516;2022-08-19T13:00:08;35.58;;;9.10;;
34988;SDS011;21192;40.182;44.516;2022-08-19T13:02:38;36.30;;;8.43;;
34988;SDS011;21192;40.182;44.516;2022-08-19T13:05:09;34.22;;;8.68;;
34988;SDS011;21192;40.182;44.516;2022-08-19T13:07:37;23.27;;;5.47;;
34988;SDS011;21192;40.182;44.516;2022-08-19T13:10:05;30.90;;;7.22;;
34988;SDS011;21192;40.182;44.516;2022-08-19T13:12:31;33.05;;;7.38;;
34988;SDS011;21192;40.182;44.516;2022-08-19T13:14:57;18.02;;;5.13;;
34988;SDS011;21192;40.182;44.516;2022-08-19T13:17:23;22.75;;;5.07;;
34988;SDS011;21192;40.182;44.516;2022-08-19T13:19:49;21.15;;;5.50;;
34988;SDS011;21192;40.182;44.516;2022-08-19T13:22:16;21.67;;;5.95;;
34988;SDS011;21192;40.182;44.516;2022-08-19T13:24:42;29.65;;;5.93;;
34988;SDS011;21192;40.182;44.516;2022-08-19T13:27:08;25.13;;;7.03;;
34988;SDS011;21192;40.182;44.516;2022-08-19T13:29:34;25.58;;;5.28;;
34988;SDS011;21192;40.182;44.516;2022-08-19T13:32:18;23.33;;;5.88;;
34988;SDS011;21192;40.182;44.516;2022-08-19T13:35:03;34.63;;;9.65;;
34988;SDS011;21192;40.182;44.516;2022-08-19T13:37:29;31.67;;;6.35;;
34988;SDS011;21192;40.182;44.516;2022-08-19T13:40:12;30.98;;;8.63;;
34988;SDS011;21192;40.182;44.516;2022-08-19T13:42:48;23.58;;;6.00;;
34988;SDS011;21192;40.182;44.516;2022-08-19T13:45:17;17.73;;;4.60;;
34988;SDS011;21192;40.182;44.516;2022-08-19T13:47:47;19.65;;;4.80;;
34988;SDS011;21192;40.182;44.516;2022-08-19T13:50:16;15.10;;;3.70;;
34988;SDS011;21192;40.182;44.516;2022-08-19T13:52:44;15.32;;;4.38;;
34988;SDS011;21192;40.182;44.516;2022-08-19T13:55:12;18.80;;;4.55;;
34988;SDS011;21192;40.182;44.516;2022-08-19T13:57:39;15.93;;;4.07;;
34988;SDS011;21192;40.182;44.516;2022-08-19T14:00:08;19.17;;;5.45;;
34988;SDS011;21192;40.182;44.516;2022-08-19T14:02:37;23.02;;;5.13;;
34988;SDS011;21192;40.182;44.516;2022-08-19T14:05:09;24.48;;;5.03;;
34988;SDS011;21192;40.182;44.516;2022-08-19T14:07:36;23.60;;;5.45;;
34988;SDS011;21192;40.182;44.516;2022-08-19T14:10:03;20.20;;;7.55;;
34988;SDS011;21192;40.182;44.516;2022-08-19T14:12:31;26.27;;;7.70;;
34988;SDS011;21192;40.182;44.516;2022-08-19T14:14:58;18.30;;;4.28;;
34988;SDS011;21192;40.182;44.516;2022-08-19T14:17:24;15.73;;;5.10;;
34988;SDS011;21192;40.182;44.516;2022-08-19T14:19:57;19.10;;;6.13;;
34988;SDS011;21192;40.182;44.516;2022-08-19T14:22:23;18.83;;;5.38;;
34988;SDS011;21192;40.182;44.516;2022-08-19T14:24:49;14.77;;;5.03;;
34988;SDS011;21192;40.182;44.516;2022-08-19T14:27:15;25.50;;;6.00;;
34988;SDS011;21192;40.182;44.516;2022-08-19T14:29:41;27.27;;;8.32;;
34988;SDS011;21192;40.182;44.516;2022-08-19T14:32:07;26.25;;;6.40;;
34988;SDS011;21192;40.182;44.516;2022-08-19T14:34:33;22.83;;;4.65;;
34988;SDS011;21192;40.182;44.516;2022-08-19T14:37:02;16.23;;;5.63;;
34988;SDS011;21192;40.182;44.516;2022-08-19T14:39:28;15.13;;;5.72;;
34988;SDS011;21192;40.182;44.516;2022-08-19T14:41:54;25.48;;;8.07;;